createdAt,value
2022-08-05T00:00:20.460Z,3.00
2022-08-05T00:01:20.246Z,2.80
2022-08-05T00:02:20.492Z,3.20
2022-08-05T00:03:19.403Z,2.90
2022-08-05T00:04:19.397Z,3.10
2022-08-05T00:06:02.063Z,3.30
2022-08-05T00:06:32.470Z,3.00
2022-08-05T00:07:58.741Z,3.10
2022-08-05T00:08:35.083Z,3.00
2022-08-05T00:09:20.220Z,3.40
2022-08-05T00:10:19.335Z,4.30
2022-08-05T00:11:23.932Z,3.50
2022-08-05T00:12:19.310Z,3.30
2022-08-05T00:13:19.795Z,3.50
2022-08-05T00:14:19.288Z,3.30
2022-08-05T00:15:57.852Z,3.50
2022-08-05T00:16:36.532Z,4.10
2022-08-05T00:17:20.382Z,4.00
2022-08-05T00:18:21.815Z,4.00
2022-08-05T00:19:19.234Z,3.90
2022-08-05T00:20:20.395Z,3.60
2022-08-05T00:21:19.221Z,3.70
2022-08-05T00:22:19.204Z,3.80
2022-08-05T00:23:44.374Z,3.50
2022-08-05T00:24:24.727Z,3.40
2022-08-05T00:25:20.196Z,3.60
2022-08-05T00:26:19.160Z,3.80
2022-08-05T00:27:19.151Z,3.70
2022-08-05T00:28:21.099Z,4.40
2022-08-05T00:29:22.371Z,4.10
2022-08-05T00:30:19.120Z,4.00
2022-08-05T00:31:54.113Z,4.10
2022-08-05T00:32:20.141Z,4.30
2022-08-05T00:34:54.548Z,4.50
2022-08-05T00:34:56.128Z,4.10
2022-08-05T00:35:20.417Z,3.90
2022-08-05T00:37:10.483Z,4.40
2022-08-05T00:37:20.318Z,4.20
2022-08-05T00:38:19.048Z,3.90
2022-08-05T00:39:20.102Z,4.30
2022-08-05T00:40:28.069Z,4.90
2022-08-05T00:41:19.005Z,4.60
2022-08-05T00:42:32.259Z,4.40
2022-08-05T00:43:20.019Z,4.50
2022-08-05T00:44:18.976Z,4.60
2022-08-05T00:45:25.026Z,4.30
2022-08-05T00:46:18.959Z,4.80
2022-08-05T00:47:19.966Z,4.40
2022-08-05T00:48:27.700Z,4.90
2022-08-05T00:49:19.954Z,5.10
2022-08-05T00:50:21.058Z,4.90
2022-08-05T00:51:50.224Z,4.20
2022-08-05T00:52:18.893Z,4.30
2022-08-05T00:54:01.085Z,4.60
2022-08-05T00:54:18.913Z,4.20
2022-08-05T00:55:18.991Z,4.80
2022-08-05T00:56:22.752Z,4.20
2022-08-05T00:57:21.374Z,4.80
2022-08-05T00:58:19.200Z,4.70
2022-08-05T00:59:18.816Z,4.40
2022-08-05T01:00:20.013Z,4.40
2022-08-05T01:01:24.995Z,4.40
2022-08-05T01:02:19.809Z,4.40
2022-08-05T01:03:22.524Z,4.30
2022-08-05T01:04:20.132Z,4.50
2022-08-05T01:05:19.791Z,4.40
2022-08-05T01:06:18.747Z,4.30
2022-08-05T01:07:18.730Z,4.80
2022-08-05T01:08:42.368Z,4.90
2022-08-05T01:09:20.021Z,4.90
2022-08-05T01:10:18.703Z,4.80
2022-08-05T01:11:22.621Z,5.00
2022-08-05T01:12:19.703Z,4.90
2022-08-05T01:13:19.408Z,5.10
2022-08-05T01:14:18.671Z,5.10
2022-08-05T01:15:35.642Z,4.70
2022-08-05T01:16:21.062Z,4.80
2022-08-05T01:17:19.653Z,5.10
2022-08-05T01:18:18.613Z,5.10
2022-08-05T01:19:18.620Z,5.10
2022-08-05T01:20:18.665Z,4.80
2022-08-05T01:21:22.968Z,4.90
2022-08-05T01:22:23.914Z,5.30
2022-08-05T01:23:23.439Z,5.40
2022-08-05T01:24:18.548Z,5.40
2022-08-05T01:25:18.532Z,5.20
2022-08-05T01:26:18.525Z,5.80
2022-08-05T01:27:19.467Z,5.30
2022-08-05T01:28:18.501Z,5.30
2022-08-05T01:29:18.499Z,5.20
2022-08-05T01:30:19.059Z,5.30
2022-08-05T01:31:19.495Z,5.60
2022-08-05T01:32:18.834Z,5.50
2022-08-05T01:33:19.632Z,5.30
2022-08-05T01:34:18.438Z,5.50
2022-08-05T01:35:51.873Z,5.00
2022-08-05T01:36:20.965Z,5.30
2022-08-05T01:37:25.218Z,5.40
2022-08-05T01:38:26.798Z,5.20
2022-08-05T01:39:47.247Z,4.90
2022-08-05T01:40:19.403Z,5.10
2022-08-05T01:41:21.005Z,4.80
2022-08-05T01:42:18.352Z,5.70
2022-08-05T01:43:22.241Z,4.80
2022-08-05T01:44:18.338Z,4.80
2022-08-05T01:45:18.312Z,5.30
2022-08-05T01:46:42.396Z,5.20
2022-08-05T01:47:19.321Z,5.70
2022-08-05T01:48:18.284Z,5.70
2022-08-05T01:49:23.972Z,6.20
2022-08-05T01:50:19.289Z,5.60
2022-08-05T01:51:19.282Z,5.00
2022-08-05T01:52:19.108Z,5.10
2022-08-05T01:53:54.668Z,5.40
2022-08-05T01:54:18.209Z,6.40
2022-08-05T01:55:18.202Z,5.30
2022-08-05T01:58:11.074Z,5.30
2022-08-05T01:58:18.726Z,5.00
2022-08-05T01:58:40.710Z,5.50
2022-08-05T01:59:18.156Z,5.50
2022-08-05T02:00:18.143Z,5.30
2022-08-05T02:01:24.666Z,5.60
2022-08-05T02:02:19.249Z,5.40
2022-08-05T02:03:29.238Z,5.20
2022-08-05T02:04:19.148Z,5.40
2022-08-05T02:05:18.089Z,5.90
2022-08-05T02:06:37.508Z,5.00
2022-08-05T02:07:21.848Z,5.20
2022-08-05T02:08:20.472Z,5.60
2022-08-05T02:09:20.646Z,5.50
2022-08-05T02:10:18.036Z,5.10
2022-08-05T02:11:23.675Z,4.90
2022-08-05T02:12:18.006Z,5.80
2022-08-05T02:13:18.001Z,5.70
2022-08-05T02:14:17.984Z,5.80
2022-08-05T02:15:19.756Z,5.70
2022-08-05T02:16:18.029Z,5.40
2022-08-05T02:18:28.019Z,6.00
2022-08-05T02:18:31.092Z,6.20
2022-08-05T02:19:19.103Z,6.10
2022-08-05T02:20:20.678Z,6.10
2022-08-05T02:21:17.922Z,6.00
2022-08-05T02:22:26.120Z,6.00
2022-08-05T02:23:17.889Z,6.20
2022-08-05T02:24:18.083Z,6.30
2022-08-05T02:25:17.867Z,6.60
2022-08-05T02:26:17.853Z,6.30
2022-08-05T02:27:17.849Z,6.40
2022-08-05T02:28:28.391Z,6.60
2022-08-05T02:29:21.657Z,6.30
2022-08-05T02:30:17.823Z,6.60
2022-08-05T02:31:21.056Z,6.20
2022-08-05T02:32:19.755Z,6.60
2022-08-05T02:33:24.345Z,6.60
2022-08-05T02:34:17.769Z,6.10
2022-08-05T02:35:19.134Z,7.50
2022-08-05T02:36:18.778Z,6.40
2022-08-05T02:37:17.741Z,6.40
2022-08-05T02:38:19.392Z,7.40
2022-08-05T02:39:17.762Z,6.90
2022-08-05T02:40:17.704Z,6.80
2022-08-05T02:41:17.969Z,6.70
2022-08-05T02:42:25.950Z,6.50
2022-08-05T02:43:17.672Z,7.80
2022-08-05T02:44:17.662Z,7.10
2022-08-05T02:45:17.648Z,7.40
2022-08-05T02:46:17.637Z,8.10
2022-08-05T02:47:21.867Z,7.90
2022-08-05T02:48:17.614Z,7.90
2022-08-05T02:49:17.603Z,8.10
2022-08-05T02:50:18.021Z,7.10
2022-08-05T02:51:17.589Z,7.90
2022-08-05T02:52:29.849Z,7.90
2022-08-05T02:53:18.893Z,8.40
2022-08-05T02:54:34.842Z,7.40
2022-08-05T02:55:52.160Z,7.60
2022-08-05T02:56:18.932Z,7.40
2022-08-05T02:58:11.823Z,7.50
2022-08-05T02:58:17.503Z,7.60
2022-08-05T02:59:17.494Z,8.20
2022-08-05T03:00:17.482Z,8.10
2022-08-05T03:01:19.388Z,7.40
2022-08-05T03:02:17.462Z,8.00
2022-08-05T03:03:17.448Z,7.90
2022-08-05T03:04:17.441Z,8.10
2022-08-05T03:05:17.433Z,6.90
2022-08-05T03:06:53.880Z,7.40
2022-08-05T03:07:30.869Z,8.10
2022-08-05T03:08:17.395Z,7.90
2022-08-05T03:09:26.922Z,8.50
2022-08-05T03:10:22.002Z,7.80
2022-08-05T03:11:57.555Z,8.80
2022-08-05T03:12:18.377Z,7.90
2022-08-05T03:13:17.344Z,7.80
2022-08-05T03:14:17.331Z,8.40
2022-08-05T03:15:17.321Z,8.70
2022-08-05T03:16:17.309Z,8.90
2022-08-05T03:17:17.299Z,8.00
2022-08-05T03:18:17.564Z,9.00
2022-08-05T03:19:33.748Z,8.60
2022-08-05T03:20:17.263Z,8.60
2022-08-05T03:21:17.257Z,8.90
2022-08-05T03:22:31.813Z,8.20
2022-08-05T03:23:18.257Z,8.20
2022-08-05T03:24:17.221Z,8.70
2022-08-05T03:26:04.027Z,8.10
2022-08-05T03:26:31.733Z,8.60
2022-08-05T03:27:18.213Z,8.00
2022-08-05T03:28:18.826Z,7.80
2022-08-05T03:29:17.302Z,8.60
2022-08-05T03:30:17.155Z,7.70
2022-08-05T03:31:55.356Z,9.00
2022-08-05T03:32:17.155Z,8.40
2022-08-05T03:33:17.126Z,8.20
2022-08-05T03:34:17.108Z,8.40
2022-08-05T03:35:17.098Z,8.60
2022-08-05T03:36:17.089Z,8.90
2022-08-05T03:37:17.078Z,9.40
2022-08-05T03:38:17.065Z,8.60
2022-08-05T03:39:20.106Z,7.90
2022-08-05T03:40:24.233Z,8.60
2022-08-05T03:41:17.032Z,8.50
2022-08-05T03:42:17.022Z,8.40
2022-08-05T03:43:58.434Z,7.60
2022-08-05T03:44:19.999Z,8.40
2022-08-05T03:45:22.353Z,7.80
2022-08-05T03:46:16.978Z,7.80
2022-08-05T03:47:16.969Z,8.10
2022-08-05T03:48:16.956Z,8.40
2022-08-05T03:49:16.950Z,7.80
2022-08-05T03:50:16.934Z,8.20
2022-08-05T03:52:37.668Z,8.30
2022-08-05T03:52:50.074Z,8.20
2022-08-05T03:55:49.952Z,8.30
2022-08-05T03:55:53.359Z,8.70
2022-08-05T03:56:04.946Z,8.50
2022-08-05T03:56:27.754Z,9.20
2022-08-05T03:57:17.950Z,8.70
2022-08-05T03:58:16.847Z,8.60
2022-08-05T03:59:20.421Z,8.70
2022-08-05T04:00:16.826Z,7.90
2022-08-05T04:01:16.854Z,7.90
2022-08-05T04:02:17.491Z,8.30
2022-08-05T04:03:26.653Z,8.50
2022-08-05T04:04:21.083Z,8.40
2022-08-05T04:05:16.772Z,8.10
2022-08-05T04:06:16.761Z,7.70
2022-08-05T04:07:16.803Z,8.10
2022-08-05T04:08:30.421Z,7.60
2022-08-05T04:09:26.121Z,7.20
2022-08-05T04:10:17.601Z,7.40
2022-08-05T04:11:16.704Z,7.60
2022-08-05T04:12:23.619Z,7.80
2022-08-05T04:13:17.709Z,7.80
2022-08-05T04:14:17.927Z,7.20
2022-08-05T04:15:16.798Z,8.30
2022-08-05T04:16:16.649Z,7.50
2022-08-05T04:17:17.739Z,7.90
2022-08-05T04:18:22.461Z,7.70
2022-08-05T04:19:17.646Z,7.90
2022-08-05T04:20:16.600Z,8.00
2022-08-05T04:22:04.944Z,7.50
2022-08-05T04:22:20.420Z,7.80
2022-08-05T04:23:16.575Z,7.50
2022-08-05T04:24:19.396Z,7.80
2022-08-05T04:25:17.578Z,7.50
2022-08-05T04:26:17.289Z,8.00
2022-08-05T04:27:16.633Z,7.80
2022-08-05T04:28:17.209Z,7.70
2022-08-05T04:29:16.507Z,8.40
2022-08-05T04:30:16.490Z,8.00
2022-08-05T04:31:16.482Z,8.90
2022-08-05T04:32:30.653Z,8.30
2022-08-05T04:33:16.466Z,8.30
2022-08-05T04:34:33.379Z,8.80
2022-08-05T04:35:19.653Z,9.10
2022-08-05T04:36:46.006Z,8.80
2022-08-05T04:37:16.483Z,8.80
2022-08-05T04:38:16.403Z,9.00
2022-08-05T04:39:16.530Z,8.50
2022-08-05T04:40:17.102Z,8.90
2022-08-05T04:41:16.374Z,8.90
2022-08-05T04:42:16.407Z,9.20
2022-08-05T04:43:16.915Z,9.10
2022-08-05T04:44:21.425Z,9.00
2022-08-05T04:45:23.058Z,9.30
2022-08-05T04:46:28.328Z,9.70
2022-08-05T04:47:18.749Z,9.90
2022-08-05T04:48:26.893Z,9.60
2022-08-05T04:49:16.285Z,9.70
2022-08-05T04:50:16.273Z,10.40
2022-08-05T04:51:17.291Z,10.60
2022-08-05T04:52:16.252Z,10.10
2022-08-05T04:53:16.239Z,11.00
2022-08-05T04:54:16.227Z,9.90
2022-08-05T04:55:16.216Z,10.80
2022-08-05T04:56:34.844Z,11.40
2022-08-05T04:57:16.231Z,11.20
2022-08-05T04:58:16.193Z,10.70
2022-08-05T04:59:23.149Z,10.20
2022-08-05T05:00:16.162Z,10.00
2022-08-05T05:02:04.022Z,10.50
2022-08-05T05:02:37.567Z,10.20
2022-08-05T05:03:17.152Z,9.90
2022-08-05T05:04:16.115Z,10.00
2022-08-05T05:05:26.496Z,10.20
2022-08-05T05:06:40.534Z,11.00
2022-08-05T05:07:17.321Z,10.20
2022-08-05T05:08:26.561Z,10.30
2022-08-05T05:09:17.765Z,10.60
2022-08-05T05:10:16.066Z,10.90
2022-08-05T05:11:16.042Z,11.90
2022-08-05T05:12:16.027Z,11.50
2022-08-05T05:13:16.024Z,11.60
2022-08-05T05:14:16.358Z,10.60
2022-08-05T05:15:17.501Z,10.70
2022-08-05T05:16:15.986Z,11.60
2022-08-05T05:17:22.778Z,10.70
2022-08-05T05:18:33.093Z,10.40
2022-08-05T05:19:19.469Z,10.50
2022-08-05T05:20:16.971Z,10.20
2022-08-05T05:21:15.982Z,9.90
2022-08-05T05:22:23.427Z,10.00
2022-08-05T05:23:19.722Z,10.20
2022-08-05T05:24:15.897Z,10.50
2022-08-05T05:25:16.995Z,9.90
2022-08-05T05:26:15.881Z,9.50
2022-08-05T05:27:15.945Z,9.90
2022-08-05T05:28:15.859Z,9.90
2022-08-05T05:29:15.846Z,8.80
2022-08-05T05:30:29.664Z,9.00
2022-08-05T05:31:15.828Z,9.90
2022-08-05T05:32:15.880Z,8.90
2022-08-05T05:33:23.474Z,9.60
2022-08-05T05:34:18.064Z,9.30
2022-08-05T05:35:19.998Z,8.40
2022-08-05T05:36:15.777Z,8.20
2022-08-05T05:37:15.867Z,8.90
2022-08-05T05:38:22.388Z,8.30
2022-08-05T05:39:16.826Z,8.80
2022-08-05T05:40:15.889Z,8.30
2022-08-05T05:41:16.389Z,8.10
2022-08-05T05:42:15.703Z,8.60
2022-08-05T05:43:15.695Z,8.40
2022-08-05T05:44:36.777Z,8.30
2022-08-05T05:45:16.697Z,7.80
2022-08-05T05:46:18.004Z,7.70
2022-08-05T05:47:30.600Z,8.10
2022-08-05T05:48:16.663Z,8.50
2022-08-05T05:49:22.976Z,8.10
2022-08-05T05:50:16.434Z,7.90
2022-08-05T05:51:16.153Z,8.80
2022-08-05T05:52:26.457Z,7.60
2022-08-05T05:53:22.247Z,7.50
2022-08-05T05:54:15.570Z,7.20
2022-08-05T05:55:15.555Z,7.50
2022-08-05T05:56:15.543Z,7.70
2022-08-05T05:57:19.278Z,7.40
2022-08-05T05:58:15.519Z,7.40
2022-08-05T05:59:15.512Z,7.60
2022-08-05T06:00:15.500Z,8.10
2022-08-05T06:01:15.553Z,7.30
2022-08-05T06:02:15.476Z,8.20
2022-08-05T06:03:40.255Z,7.80
2022-08-05T06:04:16.545Z,7.60
2022-08-05T06:05:16.901Z,7.90
2022-08-05T06:06:15.437Z,7.60
2022-08-05T06:07:15.591Z,8.00
2022-08-05T06:08:15.407Z,8.00
2022-08-05T06:09:16.665Z,8.30
2022-08-05T06:10:15.387Z,8.50
2022-08-05T06:11:15.373Z,8.10
2022-08-05T06:12:15.614Z,7.90
2022-08-05T06:13:15.348Z,7.30
2022-08-05T06:14:15.340Z,8.00
2022-08-05T06:15:24.162Z,8.10
2022-08-05T06:16:30.749Z,8.00
2022-08-05T06:17:22.129Z,7.60
2022-08-05T06:18:15.296Z,7.60
2022-08-05T06:19:15.287Z,7.50
2022-08-05T06:20:18.729Z,8.00
2022-08-05T06:21:18.629Z,7.60
2022-08-05T06:22:15.256Z,7.80
2022-08-05T06:23:15.243Z,7.80
2022-08-05T06:24:15.243Z,7.60
2022-08-05T06:25:59.695Z,7.60
2022-08-05T06:26:20.880Z,7.10
2022-08-05T06:27:17.251Z,7.10
2022-08-05T06:28:21.249Z,7.30
2022-08-05T06:29:25.490Z,7.20
2022-08-05T06:30:18.090Z,7.60
2022-08-05T06:31:18.230Z,7.20
2022-08-05T06:32:25.644Z,7.30
2022-08-05T06:33:19.094Z,6.90
2022-08-05T06:34:15.121Z,6.90
2022-08-05T06:35:15.448Z,6.80
2022-08-05T06:36:15.099Z,6.90
2022-08-05T06:37:15.090Z,6.90
2022-08-05T06:38:15.077Z,6.20
2022-08-05T06:39:15.113Z,6.70
2022-08-05T06:40:20.726Z,6.80
2022-08-05T06:41:16.074Z,7.00
2022-08-05T06:42:15.034Z,6.20
2022-08-05T06:43:58.838Z,6.40
2022-08-05T06:44:16.042Z,6.40
2022-08-05T06:45:21.220Z,6.30
2022-08-05T06:46:16.020Z,6.00
2022-08-05T06:48:11.313Z,6.30
2022-08-05T06:48:53.074Z,6.40
2022-08-05T06:49:14.953Z,6.40
2022-08-05T06:50:17.339Z,6.60
2022-08-05T06:51:23.866Z,6.50
2022-08-05T06:52:37.410Z,5.70
2022-08-05T06:53:22.490Z,6.00
2022-08-05T06:54:18.912Z,6.40
2022-08-05T06:55:14.889Z,6.20
2022-08-05T06:56:25.896Z,5.60
2022-08-05T06:57:57.615Z,5.40
2022-08-05T06:58:29.274Z,5.60
2022-08-05T06:59:15.037Z,5.50
2022-08-05T07:00:14.832Z,5.40
2022-08-05T07:01:15.890Z,5.30
2022-08-05T07:02:15.070Z,5.90
2022-08-05T07:03:14.795Z,5.70
2022-08-05T07:04:14.788Z,3.70
2022-08-05T07:05:19.563Z,4.50
2022-08-05T07:06:15.310Z,5.10
2022-08-05T07:07:15.086Z,4.30
2022-08-05T07:08:14.756Z,5.00
2022-08-05T07:09:14.742Z,5.40
2022-08-05T07:10:16.268Z,4.70
2022-08-05T07:11:15.211Z,4.50
2022-08-05T07:12:14.698Z,5.10
2022-08-05T07:13:14.687Z,5.40
2022-08-05T07:14:15.547Z,4.70
2022-08-05T07:15:34.165Z,4.90
2022-08-05T07:17:59.178Z,5.00
2022-08-05T07:18:01.977Z,5.20
2022-08-05T07:18:26.965Z,4.40
2022-08-05T07:19:38.950Z,4.40
2022-08-05T07:20:33.408Z,5.00
2022-08-05T07:21:15.628Z,5.30
2022-08-05T07:22:15.806Z,4.80
2022-08-05T07:23:26.433Z,5.30
2022-08-05T07:24:15.617Z,8.00
2022-08-05T07:25:54.103Z,5.20
2022-08-05T07:26:18.402Z,4.90
2022-08-05T07:27:14.540Z,5.70
2022-08-05T07:28:17.221Z,4.80
2022-08-05T07:29:14.504Z,5.60
2022-08-05T07:30:22.913Z,5.00
2022-08-05T07:31:14.486Z,5.60
2022-08-05T07:32:14.625Z,5.50
2022-08-05T07:33:16.813Z,5.90
2022-08-05T07:34:14.454Z,5.50
2022-08-05T07:36:01.814Z,5.10
2022-08-05T07:36:20.771Z,5.50
2022-08-05T07:37:14.420Z,5.30
2022-08-05T07:38:32.704Z,5.50
2022-08-05T07:39:24.848Z,5.40
2022-08-05T07:40:31.818Z,5.20
2022-08-05T07:42:09.395Z,5.20
2022-08-05T07:42:16.438Z,5.20
2022-08-05T07:43:14.776Z,5.20
2022-08-05T07:44:18.920Z,4.90
2022-08-05T07:45:14.327Z,5.40
2022-08-05T07:46:20.786Z,5.20
2022-08-05T07:47:15.333Z,5.10
2022-08-05T07:48:14.299Z,5.90
2022-08-05T07:49:15.328Z,5.80
2022-08-05T07:50:16.549Z,5.90
2022-08-05T07:51:23.571Z,6.00
2022-08-05T07:52:15.275Z,5.70
2022-08-05T07:53:14.234Z,5.80
2022-08-05T07:54:14.226Z,5.80
2022-08-05T07:55:44.002Z,5.80
2022-08-05T07:57:00.837Z,5.40
2022-08-05T07:57:50.496Z,5.60
2022-08-05T07:58:17.804Z,5.40
2022-08-05T07:59:15.199Z,5.50
2022-08-05T08:00:14.160Z,5.30
2022-08-05T08:01:14.264Z,5.90
2022-08-05T08:02:15.773Z,6.30
2022-08-05T08:03:15.933Z,5.40
2022-08-05T08:04:14.116Z,5.40
2022-08-05T08:05:14.099Z,5.20
2022-08-05T08:06:14.093Z,5.20
2022-08-05T08:07:14.099Z,5.40
2022-08-05T08:08:14.075Z,5.50
2022-08-05T08:09:14.052Z,6.00
2022-08-05T08:10:14.044Z,6.20
2022-08-05T08:11:15.877Z,5.90
2022-08-05T08:12:27.266Z,6.40
2022-08-05T08:13:15.034Z,6.60
2022-08-05T08:14:18.974Z,6.40
2022-08-05T08:15:15.917Z,6.90
2022-08-05T08:16:35.424Z,6.30
2022-08-05T08:17:16.177Z,6.70
2022-08-05T08:18:14.755Z,6.80
2022-08-05T08:20:10.866Z,6.90
2022-08-05T08:20:43.977Z,8.30
2022-08-05T08:21:15.956Z,7.30
2022-08-05T08:22:15.852Z,7.50
2022-08-05T08:24:00.120Z,7.60
2022-08-05T08:24:14.910Z,8.20
2022-08-05T08:25:15.663Z,8.10
2022-08-05T08:26:13.860Z,8.50
2022-08-05T08:27:16.628Z,8.40
2022-08-05T08:28:18.671Z,7.50
2022-08-05T08:29:45.106Z,7.80
2022-08-05T08:30:28.493Z,7.40
2022-08-05T08:31:16.386Z,7.90
2022-08-05T08:32:13.811Z,8.40
2022-08-05T08:33:14.443Z,7.90
2022-08-05T08:34:13.775Z,7.80
2022-08-05T08:35:13.929Z,7.30
2022-08-05T08:36:37.558Z,7.30
2022-08-05T08:37:14.764Z,7.80
2022-08-05T08:38:16.597Z,7.30
2022-08-05T08:39:15.801Z,7.20
2022-08-05T08:40:13.720Z,7.20
2022-08-05T08:41:14.152Z,7.30
2022-08-05T08:42:32.495Z,7.00
2022-08-05T08:44:56.416Z,7.10
2022-08-05T08:45:18.820Z,7.60
2022-08-05T08:45:25.337Z,8.10
2022-08-05T08:46:16.196Z,6.50
2022-08-05T08:47:46.794Z,6.90
2022-08-05T08:48:37.611Z,6.80
2022-08-05T08:50:23.236Z,6.80
2022-08-05T08:50:52.590Z,8.20
2022-08-05T08:52:02.325Z,7.30
2022-08-05T08:52:14.676Z,7.10
2022-08-05T08:53:13.564Z,6.70
2022-08-05T08:54:13.801Z,6.30
2022-08-05T08:55:13.677Z,6.50
2022-08-05T08:56:13.535Z,5.60
2022-08-05T08:57:13.574Z,7.80
2022-08-05T08:58:13.516Z,9.10
2022-08-05T08:59:19.219Z,7.20
2022-08-05T09:00:15.634Z,6.20
2022-08-05T09:01:16.916Z,6.30
2022-08-05T09:02:13.501Z,6.00
2022-08-05T09:03:16.088Z,6.20
2022-08-05T09:04:13.489Z,6.30
2022-08-05T09:05:17.944Z,6.50
2022-08-05T09:06:16.982Z,6.60
2022-08-05T09:07:28.239Z,6.50
2022-08-05T09:08:14.441Z,6.10
2022-08-05T09:09:13.395Z,5.70
2022-08-05T09:10:13.381Z,6.40
2022-08-05T09:11:13.878Z,6.00
2022-08-05T09:12:20.527Z,6.10
2022-08-05T09:13:13.348Z,6.30
2022-08-05T09:14:57.070Z,6.30
2022-08-05T09:15:14.351Z,6.50
2022-08-05T09:16:14.696Z,6.40
2022-08-05T09:17:15.970Z,6.20
2022-08-05T09:18:14.322Z,6.80
2022-08-05T09:19:14.644Z,6.70
2022-08-05T09:20:13.276Z,6.30
2022-08-05T09:21:21.223Z,6.20
2022-08-05T09:22:23.341Z,6.00
2022-08-05T09:23:18.688Z,6.80
2022-08-05T09:24:14.255Z,6.40
2022-08-05T09:25:13.682Z,6.00
2022-08-05T09:26:15.856Z,5.40
2022-08-05T09:27:18.845Z,5.20
2022-08-05T09:28:13.188Z,4.80
2022-08-05T09:29:16.240Z,5.00
2022-08-05T09:30:16.485Z,4.90
2022-08-05T09:31:22.615Z,5.30
2022-08-05T09:32:42.299Z,5.10
2022-08-05T09:33:15.273Z,5.50
2022-08-05T09:34:13.183Z,5.30
2022-08-05T09:35:26.451Z,5.50
2022-08-05T09:36:16.645Z,5.60
2022-08-05T09:37:15.168Z,5.30
2022-08-05T09:38:18.046Z,6.00
2022-08-05T09:39:18.316Z,5.90
2022-08-05T09:40:14.167Z,5.10
2022-08-05T09:41:13.044Z,5.30
2022-08-05T09:42:17.763Z,5.10
2022-08-05T09:43:14.054Z,5.30
2022-08-05T09:44:13.022Z,5.40
2022-08-05T09:46:04.875Z,5.20
2022-08-05T09:46:12.997Z,5.50
2022-08-05T09:47:15.612Z,5.20
2022-08-05T09:48:12.972Z,6.00
2022-08-05T09:49:19.398Z,5.60
2022-08-05T09:50:18.219Z,5.00
2022-08-05T09:51:15.363Z,5.40
2022-08-05T09:52:12.928Z,5.50
2022-08-05T09:53:22.994Z,5.10
2022-08-05T09:54:13.934Z,5.30
2022-08-05T09:55:56.848Z,5.60
2022-08-05T09:56:13.619Z,5.90
2022-08-05T09:57:23.142Z,5.70
2022-08-05T09:58:12.861Z,5.60
2022-08-05T09:59:16.872Z,5.70
2022-08-05T10:00:12.841Z,5.20
2022-08-05T10:01:15.120Z,5.30
2022-08-05T10:02:13.869Z,5.90
2022-08-05T10:03:12.808Z,5.80
2022-08-05T10:04:12.872Z,5.60
2022-08-05T10:05:12.789Z,5.20
2022-08-05T10:06:14.756Z,5.20
2022-08-05T10:07:20.032Z,4.80
2022-08-05T10:08:37.009Z,4.00
2022-08-05T10:09:28.326Z,4.10
2022-08-05T10:10:15.178Z,3.90
2022-08-05T10:11:12.721Z,3.40
2022-08-05T10:12:30.530Z,3.10
2022-08-05T10:13:14.659Z,3.30
2022-08-05T10:14:12.692Z,3.20
2022-08-05T10:15:12.681Z,3.80
2022-08-05T10:16:12.670Z,3.10
2022-08-05T10:17:14.106Z,2.90
2022-08-05T10:18:12.645Z,3.00
2022-08-05T10:19:12.634Z,3.50
2022-08-05T10:20:12.623Z,2.70
2022-08-05T10:21:16.344Z,3.20
2022-08-05T10:22:15.606Z,3.90
2022-08-05T10:23:34.617Z,3.90
2022-08-05T10:24:14.007Z,3.30
2022-08-05T10:25:14.222Z,3.80
2022-08-05T10:26:14.044Z,3.30
2022-08-05T10:27:12.597Z,3.40
2022-08-05T10:28:17.245Z,3.40
2022-08-05T10:29:12.525Z,3.30
2022-08-05T10:31:20.685Z,2.90
2022-08-05T10:32:54.586Z,2.50
2022-08-05T10:33:01.265Z,2.40
2022-08-05T10:33:14.920Z,2.70
2022-08-05T10:34:12.518Z,3.10
2022-08-05T10:35:12.464Z,3.20
2022-08-05T10:36:12.478Z,3.00
2022-08-05T10:37:12.457Z,2.80
2022-08-05T10:38:12.426Z,2.80
2022-08-05T10:39:15.128Z,2.70
2022-08-05T10:40:18.189Z,2.40
2022-08-05T10:41:13.881Z,2.80
2022-08-05T10:42:12.387Z,2.80
2022-08-05T10:43:12.544Z,2.60
2022-08-05T10:44:12.401Z,2.60
2022-08-05T10:45:23.368Z,2.70
2022-08-05T10:46:12.373Z,2.50
2022-08-05T10:47:26.248Z,2.50
2022-08-05T10:48:29.717Z,2.50
2022-08-05T10:49:16.623Z,2.70
2022-08-05T10:50:32.472Z,2.60
2022-08-05T10:51:22.421Z,2.20
2022-08-05T10:52:13.302Z,2.90
2022-08-05T10:53:12.267Z,2.70
2022-08-05T10:54:29.897Z,2.40
2022-08-05T10:55:12.243Z,3.00
2022-08-05T10:56:21.240Z,2.50
2022-08-05T10:57:13.253Z,2.70
2022-08-05T10:58:15.573Z,3.00
2022-08-05T11:00:04.324Z,2.90
2022-08-05T11:00:18.664Z,2.60
2022-08-05T11:01:12.180Z,2.60
2022-08-05T11:02:14.608Z,2.40
2022-08-05T11:03:24.396Z,2.40
2022-08-05T11:04:13.170Z,2.70
2022-08-05T11:05:12.142Z,2.90
2022-08-05T11:06:15.755Z,2.70
2022-08-05T11:07:12.119Z,3.20
2022-08-05T11:08:33.920Z,2.90
2022-08-05T11:09:13.182Z,2.80
2022-08-05T11:10:12.083Z,2.90
2022-08-05T11:11:16.826Z,2.60
2022-08-05T11:12:12.077Z,2.50
2022-08-05T11:13:12.219Z,2.90
2022-08-05T11:14:12.079Z,2.60
2022-08-05T11:15:19.941Z,4.80
2022-08-05T11:16:12.015Z,3.30
2022-08-05T11:17:57.232Z,2.70
2022-08-05T11:18:12.169Z,2.90
2022-08-05T11:20:17.416Z,2.60
2022-08-05T11:20:17.842Z,2.90
2022-08-05T11:21:12.142Z,3.50
2022-08-05T11:22:11.954Z,2.60
2022-08-05T11:23:12.006Z,2.70
2022-08-05T11:24:14.771Z,3.40
2022-08-05T11:26:03.161Z,2.90
2022-08-05T11:26:12.937Z,3.00
2022-08-05T11:27:11.899Z,3.00
2022-08-05T11:28:11.885Z,3.10
2022-08-05T11:29:14.373Z,3.00
2022-08-05T11:30:11.868Z,2.90
2022-08-05T11:31:11.883Z,2.90
2022-08-05T11:32:12.876Z,2.70
2022-08-05T11:33:13.750Z,2.90
2022-08-05T11:34:14.795Z,2.80
2022-08-05T11:35:11.820Z,3.10
2022-08-05T11:36:11.965Z,2.80
2022-08-05T11:38:30.622Z,3.20
2022-08-05T11:38:37.005Z,3.20
2022-08-05T11:39:13.664Z,3.10
2022-08-05T11:40:11.758Z,3.10
2022-08-05T11:41:35.103Z,3.10
2022-08-05T11:42:11.786Z,3.70
2022-08-05T11:43:11.728Z,3.30
2022-08-05T11:44:11.720Z,3.20
2022-08-05T11:45:23.260Z,3.40
2022-08-05T11:46:15.611Z,3.30
2022-08-05T11:47:15.101Z,3.10
2022-08-05T11:48:11.700Z,3.30
2022-08-05T11:49:11.903Z,3.20
2022-08-05T11:50:14.374Z,3.30
2022-08-05T11:51:11.639Z,3.40
2022-08-05T11:52:12.683Z,3.70
2022-08-05T11:53:11.621Z,3.60
2022-08-05T11:54:11.614Z,3.10
2022-08-05T11:55:12.602Z,3.00
2022-08-05T11:56:11.605Z,3.40
2022-08-05T11:57:25.089Z,3.20
2022-08-05T11:58:12.170Z,3.30
2022-08-05T11:59:13.831Z,3.30
2022-08-05T12:00:11.739Z,3.10
2022-08-05T12:01:11.534Z,3.00
2022-08-05T12:02:12.134Z,3.40
2022-08-05T12:03:11.533Z,3.30
2022-08-05T12:04:11.498Z,2.70
2022-08-05T12:05:18.008Z,3.10
2022-08-05T12:06:12.505Z,2.80
2022-08-05T12:07:11.472Z,2.80
2022-08-05T12:08:11.883Z,3.40
2022-08-05T12:09:19.982Z,7.10
2022-08-05T12:10:12.569Z,3.00
2022-08-05T12:11:11.424Z,2.50
2022-08-05T12:12:12.441Z,2.50
2022-08-05T12:13:15.882Z,2.40
2022-08-05T12:14:11.402Z,2.10
2022-08-05T12:15:16.457Z,1.90
2022-08-05T12:16:14.797Z,1.70
2022-08-05T12:17:57.840Z,1.70
2022-08-05T12:18:12.514Z,1.90
2022-08-05T12:20:26.719Z,2.20
2022-08-05T12:20:27.462Z,2.10
2022-08-05T12:21:11.595Z,2.20
2022-08-05T12:22:11.306Z,2.20
2022-08-05T12:23:11.297Z,2.10
2022-08-05T12:24:11.287Z,2.10
2022-08-05T12:25:14.302Z,2.30
2022-08-05T12:26:11.263Z,2.00
2022-08-05T12:27:21.498Z,1.80
2022-08-05T12:28:11.241Z,1.60
2022-08-05T12:29:15.842Z,1.80
2022-08-05T12:30:15.323Z,1.50
2022-08-05T12:31:11.212Z,2.00
2022-08-05T12:32:12.228Z,1.90
2022-08-05T12:33:27.947Z,1.80
2022-08-05T12:34:20.272Z,1.80
2022-08-05T12:35:12.222Z,1.80
2022-08-05T12:36:11.226Z,2.10
2022-08-05T12:37:17.403Z,2.20
2022-08-05T12:38:11.140Z,1.80
2022-08-05T12:39:11.247Z,2.10
2022-08-05T12:40:11.394Z,2.10
2022-08-05T12:41:13.123Z,1.60
2022-08-05T12:42:14.772Z,1.80
2022-08-05T12:43:11.084Z,1.70
2022-08-05T12:44:11.423Z,2.10
2022-08-05T12:45:11.382Z,1.80
2022-08-05T12:46:12.393Z,1.80
2022-08-05T12:47:12.491Z,2.40
2022-08-05T12:48:27.190Z,1.70
2022-08-05T12:49:13.889Z,1.70
2022-08-05T12:50:11.008Z,2.00
2022-08-05T12:52:10.949Z,2.00
2022-08-05T12:52:23.853Z,1.80
2022-08-05T12:53:12.004Z,1.60
2022-08-05T12:54:16.581Z,1.50
2022-08-05T12:55:11.980Z,1.70
2022-08-05T12:56:34.285Z,1.80
2022-08-05T12:57:12.853Z,1.60
2022-08-05T12:58:48.829Z,1.90
2022-08-05T12:59:11.096Z,1.90
2022-08-05T13:02:01.310Z,2.00
2022-08-05T13:02:03.205Z,1.80
2022-08-05T13:02:11.180Z,1.90
2022-08-05T13:03:12.181Z,1.70
2022-08-05T13:04:11.097Z,1.80
2022-08-05T13:05:14.324Z,1.90
2022-08-05T13:06:11.763Z,1.90
2022-08-05T13:07:11.059Z,2.10
2022-08-05T13:08:11.013Z,1.70
2022-08-05T13:09:10.837Z,1.50
2022-08-05T13:10:11.105Z,2.00
2022-08-05T13:11:11.051Z,2.10
2022-08-05T13:12:13.211Z,2.00
2022-08-05T13:13:11.050Z,1.70
2022-08-05T13:14:10.773Z,1.50
2022-08-05T13:15:16.577Z,1.70
2022-08-05T13:16:11.757Z,1.80
2022-08-05T13:17:10.723Z,1.60